VTBU/UTP METAR and TAF weather

Enter ICAO airport designator
Station Type Date Time Source
VTBU METAR 2022/01/18 06:30 UTC NOAA

VTBU 180630Z 17014KT 7000 FEW020 31/22 Q1012 NOSIG


Station Type Date Time Source
VTBU Decoded METAR 2022/01/18 06:30 UTC NOAA

Rayong, Thailand (VTBU) 12-38N 101-21E 5M
Jan 18, 2022 - 01:30 AM EST / 2022.01.18 0630 UTC
Wind: from the S (170 degrees) at 16 MPH (14 KT):0
Visibility: 4 mile(s):0
Sky conditions: mostly clear
Temperature: 87 F (31 C)
Heat index: 92.3 F (33.5 C):1
Dew Point: 71 F (22 C)
Relative Humidity: 58%
Pressure (altimeter): 29.88 in. Hg (1012 hPa)
ob: VTBU 180630Z 17014KT 7000 FEW020 31/22 Q1012 NOSIG
cycle: 6

Station Type Date Time Source
VTBU TAF 2022/01/18 06:37 UTC NOAA

TAF VTBU 180500Z 1806/1906 17008KT 8000 FEW025
BECMG 1811/1813 36004KT
BECMG 1902/1904 18008KT

Example: see airport list